Time;durP1;ratioP1;P1;durP2;ratioP2;P2;SDS_P1;SDS_P2;PMS_P1;PMS_P2;Temp;Humidity;BMP_temperature;BMP_pressure;BME280_temperature;BME280_humidity;BME280_pressure;Samples;Min_cycle;Max_cycle;Signal;HPM_P1;HPM_P2
2022/09/27 00:00:12;;;;;;;0.38;0.38;;;;;;;7.07;100.00;91438.78;2122108;27;20081;-71
2022/09/27 00:01:14;;;;;;;0.38;0.35;;;;;;;7.06;100.00;91450.56;2119555;27;20027;-71
2022/09/27 00:02:15;;;;;;;0.40;0.30;;;;;;;7.09;100.00;91451.63;2122538;27;20076;-72
2022/09/27 00:03:16;;;;;;;2.13;0.60;;;;;;;6.98;100.00;91440.63;2122986;27;20084;-71
2022/09/27 00:04:17;;;;;;;1.02;0.43;;;;;;;7.00;100.00;91436.38;2113452;28;20096;-71
2022/09/27 00:05:18;;;;;;;1.95;0.40;;;;;;;7.09;100.00;91440.25;2113555;28;20019;-71
2022/09/27 00:06:30;;;;;;;0.50;0.50;;;;;;;7.01;100.00;91442.41;2122298;27;20035;-71
2022/09/27 00:07:32;;;;;;;0.30;0.30;;;;;;;6.89;100.00;91430.72;2122978;27;20019;-72
2022/09/27 00:08:34;;;;;;;0.30;0.30;;;;;;;6.89;100.00;91433.38;2122629;27;20024;-72
2022/09/27 00:09:36;;;;;;;0.95;0.45;;;;;;;6.98;100.00;91436.06;2121651;27;20052;-72
2022/09/27 00:10:37;;;;;;;0.30;0.30;;;;;;;7.12;100.00;91439.41;2121956;27;20041;-71
2022/09/27 00:11:41;;;;;;;0.45;0.40;;;;;;;7.10;100.00;91436.41;2118736;27;20071;-72
2022/09/27 00:12:42;;;;;;;0.60;0.30;;;;;;;7.13;100.00;91435.56;2122883;27;20027;-71
2022/09/27 00:13:43;;;;;;;0.90;0.50;;;;;;;7.02;100.00;91441.25;2119047;27;20028;-71
2022/09/27 00:14:44;;;;;;;0.35;0.35;;;;;;;6.96;100.00;91440.34;2122867;27;20050;-71
2022/09/27 00:15:45;;;;;;;0.40;0.40;;;;;;;7.17;100.00;91436.19;2112759;28;20556;-70
2022/09/27 00:16:46;;;;;;;2.60;0.40;;;;;;;7.25;100.00;91435.47;2110519;28;20338;-71
2022/09/27 00:17:51;;;;;;;0.60;0.60;;;;;;;7.09;100.00;91434.94;2122819;27;20449;-72
2022/09/27 00:18:59;;;;;;;1.60;0.50;;;;;;;7.02;100.00;91438.59;2122932;27;20030;-71
2022/09/27 00:20:00;;;;;;;0.60;0.40;;;;;;;6.98;100.00;91441.38;2122541;27;20027;-71
2022/09/27 00:21:06;;;;;;;3.45;0.50;;;;;;;7.01;100.00;91439.75;2121806;27;20017;-72
2022/09/27 00:22:07;;;;;;;0.85;0.52;;;;;;;7.18;100.00;91433.06;2122304;27;20027;-71
2022/09/27 00:23:08;;;;;;;2.65;0.40;;;;;;;7.10;100.00;91431.84;2122427;27;20049;-71
2022/09/27 00:24:14;;;;;;;0.43;0.40;;;;;;;7.01;100.00;91434.44;2122953;27;20039;-71
2022/09/27 00:25:15;;;;;;;0.30;0.22;;;;;;;7.00;100.00;91428.41;2122709;27;20495;-70
2022/09/27 00:26:16;;;;;;;0.77;0.50;;;;;;;7.15;100.00;91433.94;2121107;27;20042;-71
2022/09/27 00:27:17;;;;;;;2.58;0.40;;;;;;;7.05;100.00;91437.72;2122888;27;20095;-72
2022/09/27 00:28:18;;;;;;;1.83;0.45;;;;;;;6.99;100.00;91420.88;2122362;27;20030;-71
2022/09/27 00:29:19;;;;;;;1.85;0.30;;;;;;;7.09;100.00;91424.31;2122749;27;20046;-72
2022/09/27 00:30:20;;;;;;;0.50;0.40;;;;;;;7.17;100.00;91430.88;2122338;27;20054;-72
2022/09/27 00:31:24;;;;;;;0.50;0.32;;;;;;;7.25;100.00;91440.78;2122618;27;20027;-73
2022/09/27 00:32:25;;;;;;;0.30;0.30;;;;;;;7.28;100.00;91431.94;2122268;27;20019;-71
2022/09/27 00:33:27;;;;;;;1.65;0.50;;;;;;;7.25;100.00;91424.13;2122752;27;20460;-72
2022/09/27 00:34:28;;;;;;;0.30;0.30;;;;;;;7.17;100.00;91422.91;2122791;27;20484;-71
2022/09/27 00:35:29;;;;;;;1.38;0.40;;;;;;;7.11;100.00;91422.69;2122309;27;20031;-71
2022/09/27 00:36:31;;;;;;;1.92;0.40;;;;;;;7.05;100.00;91424.44;2122261;27;20019;-71
2022/09/27 00:37:32;;;;;;;3.05;0.30;;;;;;;7.12;100.00;91423.47;2122069;27;20349;-71
2022/09/27 00:38:33;;;;;;;0.65;0.63;;;;;;;7.06;100.00;91423.25;2122746;27;20030;-71
2022/09/27 00:39:34;;;;;;;2.83;0.40;;;;;;;6.94;100.00;91418.78;2122485;27;20027;-71
2022/09/27 00:40:35;;;;;;;0.40;0.40;;;;;;;6.93;100.00;91423.34;2122742;27;20023;-72
2022/09/27 00:41:37;;;;;;;1.95;0.50;;;;;;;6.89;100.00;91428.06;2121965;27;20456;-71
2022/09/27 00:42:38;;;;;;;0.52;0.30;;;;;;;6.93;100.00;91422.59;2116797;27;20400;-72
2022/09/27 00:43:46;;;;;;;0.40;0.40;;;;;;;6.92;100.00;91413.88;2122741;27;20068;-72
2022/09/27 00:45:04;;;;;;;0.70;0.35;;;;;;;7.22;100.00;91420.41;2122622;27;20670;-71
2022/09/27 00:46:05;;;;;;;1.98;0.30;;;;;;;7.15;100.00;91411.94;2122635;27;20053;-72
2022/09/27 00:47:31;;;;;;;0.93;0.30;;;;;;;7.17;100.00;91414.91;2122103;27;20035;-71
2022/09/27 00:48:35;;;;;;;0.85;0.30;;;;;;;7.21;100.00;91410.22;2121005;27;20027;-70
2022/09/27 00:49:48;;;;;;;0.30;0.30;;;;;;;7.15;100.00;91403.97;2122367;27;20530;-71
2022/09/27 00:50:54;;;;;;;1.77;0.32;;;;;;;7.04;100.00;91413.06;2120007;27;20027;-70
2022/09/27 00:52:04;;;;;;;0.45;0.32;;;;;;;7.06;100.00;91421.34;2122464;27;20039;-71
2022/09/27 00:53:23;;;;;;;0.20;0.20;;;;;;;7.08;100.00;91410.31;2122442;27;20033;-70
2022/09/27 00:54:27;;;;;;;0.77;0.30;;;;;;;6.99;100.00;91416.31;2120972;27;20035;-71
2022/09/27 00:55:33;;;;;;;0.50;0.45;;;;;;;7.21;100.00;91412.88;2121709;27;20488;-71
2022/09/27 00:56:35;;;;;;;0.30;0.30;;;;;;;7.26;100.00;91417.63;2122339;27;20405;-71
2022/09/27 00:57:37;;;;;;;0.40;0.20;;;;;;;7.13;100.00;91406.34;2122539;27;20172;-70
2022/09/27 00:58:54;;;;;;;0.30;0.30;;;;;;;7.11;100.00;91403.34;2117899;27;20038;-71
2022/09/27 01:00:06;;;;;;;0.82;0.28;;;;;;;7.19;100.00;91401.94;2121736;27;20073;-70
2022/09/27 01:01:12;;;;;;;0.20;0.20;;;;;;;7.19;100.00;91405.31;2117828;27;20060;-71
2022/09/27 01:02:13;;;;;;;0.25;0.25;;;;;;;7.13;100.00;91409.00;2122333;27;20054;-70
2022/09/27 01:03:28;;;;;;;0.40;0.40;;;;;;;7.07;100.00;91406.91;2113290;28;20547;-71
2022/09/27 01:04:30;;;;;;;0.30;0.30;;;;;;;7.09;100.00;91413.69;2102246;28;20032;-71
2022/09/27 01:05:31;;;;;;;3.20;0.40;;;;;;;7.10;100.00;91415.91;2113666;28;20374;-71
2022/09/27 01:06:32;;;;;;;0.30;0.30;;;;;;;7.10;100.00;91421.22;2121858;27;20921;-70
2022/09/27 01:07:33;;;;;;;1.95;0.47;;;;;;;7.26;100.00;91412.31;2121946;27;20023;-71
2022/09/27 01:08:34;;;;;;;1.60;0.20;;;;;;;7.15;100.00;91422.56;2122479;27;20098;-72
2022/09/27 01:09:38;;;;;;;0.15;0.15;;;;;;;7.25;100.00;91418.81;2108482;28;20119;-72
2022/09/27 01:10:52;;;;;;;0.25;0.25;;;;;;;7.22;100.00;91415.09;2109653;27;20141;-72
2022/09/27 01:12:08;;;;;;;0.20;0.20;;;;;;;7.30;100.00;91415.56;2122328;27;20047;-72
2022/09/27 01:13:25;;;;;;;0.93;0.32;;;;;;;7.20;100.00;91419.34;2118235;27;20031;-71
2022/09/27 01:14:44;;;;;;;0.55;0.40;;;;;;;7.11;100.00;91424.63;2119688;27;20381;-72
2022/09/27 01:15:57;;;;;;;0.30;0.20;;;;;;;7.16;100.00;91414.19;2119170;27;20081;-71
2022/09/27 01:17:17;;;;;;;1.13;0.35;;;;;;;7.11;100.00;91411.31;2122383;27;20047;-72
2022/09/27 01:18:27;;;;;;;0.98;0.40;;;;;;;7.09;100.00;91416.34;2118647;27;20397;-72
2022/09/27 01:19:52;;;;;;;0.30;0.30;;;;;;;7.06;100.00;91416.03;2120910;27;20039;-72
2022/09/27 01:21:24;;;;;;;1.15;0.30;;;;;;;7.03;100.00;91424.88;2119989;27;20046;-72
2022/09/27 01:23:02;;;;;;;0.30;0.30;;;;;;;7.02;100.00;91414.69;2120406;27;20080;-72
2022/09/27 01:24:05;;;;;;;1.00;0.30;;;;;;;7.04;100.00;91420.31;2121057;27;20031;-72
2022/09/27 01:25:25;;;;;;;0.20;0.20;;;;;;;7.00;100.00;91417.03;2121585;27;20055;-73
2022/09/27 01:26:35;;;;;;;2.17;0.30;;;;;;;7.11;100.00;91416.66;2120748;27;20413;-72
2022/09/27 01:28:00;;;;;;;0.75;0.30;;;;;;;7.15;100.00;91422.56;2122128;27;20047;-71
2022/09/27 01:29:39;;;;;;;0.98;0.30;;;;;;;7.40;100.00;91422.41;2122244;27;20041;-72
2022/09/27 01:30:45;;;;;;;1.10;0.30;;;;;;;7.23;100.00;91429.84;2113005;27;20047;-73
2022/09/27 01:31:48;;;;;;;0.22;0.22;;;;;;;7.20;100.00;91427.31;2122196;27;20407;-72
2022/09/27 01:33:07;;;;;;;0.52;0.38;;;;;;;7.22;100.00;91432.94;2122130;27;20517;-71
2022/09/27 01:34:11;;;;;;;2.97;0.50;;;;;;;7.22;100.00;91435.59;2122103;27;20101;-71
2022/09/27 01:35:19;;;;;;;0.57;0.25;;;;;;;7.16;100.00;91440.75;2121537;27;20035;-72
2022/09/27 01:36:34;;;;;;;4.30;0.55;;;;;;;7.12;100.00;91444.72;2122119;27;20035;-71
2022/09/27 01:37:54;;;;;;;0.77;0.50;;;;;;;7.09;100.00;91438.34;2112590;28;20042;-71
2022/09/27 01:39:10;;;;;;;1.95;0.30;;;;;;;6.97;100.00;91439.88;2110203;27;20040;-71
2022/09/27 01:40:32;;;;;;;0.30;0.30;;;;;;;7.26;100.00;91442.28;2118123;27;20757;-71
2022/09/27 01:41:51;;;;;;;1.58;0.40;;;;;;;7.23;100.00;91443.13;2122336;27;20445;-72
2022/09/27 01:43:26;;;;;;;0.30;0.30;;;;;;;7.20;100.00;91437.94;2122108;27;20395;-71
2022/09/27 01:44:34;;;;;;;0.30;0.30;;;;;;;7.16;100.00;91442.66;2120266;27;20050;-71
2022/09/27 01:46:02;;;;;;;1.55;0.30;;;;;;;7.07;100.00;91435.38;2121608;27;20038;-70
2022/09/27 01:47:21;;;;;;;0.52;0.20;;;;;;;7.02;100.00;91443.91;2121586;27;20051;-71
2022/09/27 01:48:24;;;;;;;0.70;0.30;;;;;;;7.00;100.00;91436.38;2119934;27;20031;-70
2022/09/27 01:49:34;;;;;;;1.05;0.35;;;;;;;7.10;100.00;91447.78;2122064;27;20034;-71
2022/09/27 01:50:41;;;;;;;1.35;0.30;;;;;;;7.15;100.00;91444.56;2121501;27;20035;-70
2022/09/27 01:51:57;;;;;;;1.58;0.40;;;;;;;7.34;100.00;91450.75;2118546;27;20080;-70
2022/09/27 01:53:06;;;;;;;1.55;0.30;;;;;;;7.05;100.00;91449.09;2122154;27;20041;-69
2022/09/27 01:54:13;;;;;;;1.55;0.50;;;;;;;6.98;100.00;91454.66;2117629;27;20019;-71
2022/09/27 01:55:17;;;;;;;0.75;0.45;;;;;;;6.95;100.00;91452.13;2118623;27;20115;-70
2022/09/27 01:56:25;;;;;;;1.83;0.35;;;;;;;6.98;100.00;91449.34;2121247;27;20477;-71
2022/09/27 01:57:34;;;;;;;4.03;0.50;;;;;;;7.02;100.00;91447.31;2122156;27;20464;-71
2022/09/27 01:58:45;;;;;;;9.95;1.05;;;;;;;6.97;100.00;91441.81;2121977;27;20038;-71
2022/09/27 01:59:50;;;;;;;3.63;0.52;;;;;;;6.88;100.00;91447.06;2114702;28;20031;-71
2022/09/27 02:00:54;;;;;;;2.65;0.40;;;;;;;6.83;100.00;91453.66;2112460;28;20032;-71
2022/09/27 02:01:59;;;;;;;1.42;0.32;;;;;;;6.96;100.00;91450.94;2108475;27;20036;-71
2022/09/27 02:03:13;;;;;;;1.15;0.52;;;;;;;6.95;100.00;91449.47;2122149;27;20042;-70
2022/09/27 02:04:19;;;;;;;3.25;0.88;;;;;;;6.91;100.00;91451.50;2118722;27;20035;-71
2022/09/27 02:05:25;;;;;;;1.35;0.80;;;;;;;6.79;100.00;91458.34;2122067;27;20030;-71
2022/09/27 02:06:39;;;;;;;2.15;0.68;;;;;;;6.67;100.00;91453.84;2120521;27;20054;-74
2022/09/27 02:07:52;;;;;;;1.17;0.50;;;;;;;6.66;100.00;91453.09;2118038;28;20118;-72
2022/09/27 02:08:59;;;;;;;2.53;0.40;;;;;;;6.65;100.00;91456.94;2122020;27;20027;-72
2022/09/27 02:10:29;;;;;;;0.98;0.52;;;;;;;6.66;100.00;91460.31;2117919;27;20039;-72
2022/09/27 02:11:30;;;;;;;3.28;0.63;;;;;;;6.55;100.00;91464.09;2110657;27;20039;-72
2022/09/27 02:12:38;;;;;;;0.60;0.60;;;;;;;6.45;100.00;91459.88;2122285;27;20572;-72
2022/09/27 02:15:56;;;;;;;;;;;;;;;6.59;100.00;91473.84;2146921;27;20538;-72
2022/09/27 02:17:20;;;;;;;1.30;0.55;;;;;;;6.59;100.00;91469.28;2137519;27;20301;-71
2022/09/27 02:18:53;;;;;;;3.22;0.63;;;;;;;6.51;100.00;91474.09;2135759;27;20019;-72
2022/09/27 02:20:14;;;;;;;1.23;0.60;;;;;;;6.56;100.00;91473.53;2135751;27;20026;-73
2022/09/27 02:21:18;;;;;;;1.95;1.00;;;;;;;6.49;100.00;91476.41;2138083;27;20349;-73
2022/09/27 02:22:34;;;;;;;0.90;0.90;;;;;;;6.32;100.00;91469.78;2137557;27;20186;-73
2022/09/27 02:23:47;;;;;;;4.55;0.90;;;;;;;6.34;100.00;91475.41;2138123;27;20025;-72
2022/09/27 02:25:13;;;;;;;4.50;0.73;;;;;;;6.36;100.00;91478.34;2135022;27;20026;-74
2022/09/27 02:26:31;;;;;;;3.25;0.80;;;;;;;6.42;100.00;91475.94;2134283;27;20113;-72
2022/09/27 02:28:04;;;;;;;3.08;0.98;;;;;;;6.24;100.00;91481.81;2137031;27;20030;-73
2022/09/27 02:29:16;;;;;;;2.30;0.80;;;;;;;6.29;100.00;91491.88;2137859;27;20030;-74
2022/09/27 02:30:18;;;;;;;4.45;1.10;;;;;;;6.29;100.00;91487.31;2130426;27;20092;-74
2022/09/27 02:31:19;;;;;;;3.88;1.00;;;;;;;6.22;100.00;91484.13;2137867;27;20022;-74
2022/09/27 02:32:20;;;;;;;2.47;0.90;;;;;;;6.19;100.00;91485.75;2138069;27;20018;-73
2022/09/27 02:33:25;;;;;;;4.35;1.20;;;;;;;6.23;100.00;91489.03;2136943;27;20041;-73
2022/09/27 02:34:30;;;;;;;1.95;1.20;;;;;;;6.24;100.00;91487.84;2137949;27;20022;-74
2022/09/27 02:35:33;;;;;;;3.63;1.13;;;;;;;6.21;100.00;91494.00;2137643;27;20050;-73
2022/09/27 02:36:35;;;;;;;7.00;1.40;;;;;;;6.16;100.00;91493.81;2137732;27;20063;-74
2022/09/27 02:37:36;;;;;;;5.18;1.20;;;;;;;6.16;100.00;91496.47;2137823;27;20082;-74
2022/09/27 02:38:37;;;;;;;3.17;1.10;;;;;;;6.16;100.00;91493.81;2136920;27;20038;-73
2022/09/27 02:39:38;;;;;;;7.25;1.33;;;;;;;6.09;100.00;91494.03;2133502;27;20019;-73
2022/09/27 02:40:45;;;;;;;2.33;1.10;;;;;;;6.06;100.00;91498.28;2120016;28;20148;-73
2022/09/27 02:41:46;;;;;;;6.68;1.30;;;;;;;6.01;100.00;91501.44;2121877;27;20028;-73
2022/09/27 02:42:47;;;;;;;4.88;1.70;;;;;;;6.08;100.00;91497.84;2137914;27;20530;-74
2022/09/27 02:44:03;;;;;;;4.40;1.40;;;;;;;6.17;100.00;91488.06;2127402;27;20110;-74
2022/09/27 02:45:05;;;;;;;4.68;1.27;;;;;;;6.11;100.00;91489.78;2130562;27;20022;-75
2022/09/27 02:46:35;;;;;;;5.95;1.13;;;;;;;6.06;100.00;91495.63;2137788;27;20018;-74
2022/09/27 02:47:39;;;;;;;3.38;1.50;;;;;;;6.08;100.00;91490.63;2137657;27;20032;-74
2022/09/27 02:48:56;;;;;;;5.47;1.45;;;;;;;6.09;100.00;91494.75;2133313;27;20031;-74
2022/09/27 02:50:13;;;;;;;8.60;2.03;;;;;;;6.08;100.00;91500.50;2136625;27;20512;-73
2022/09/27 02:51:26;;;;;;;6.95;1.90;;;;;;;6.02;100.00;91501.03;2134519;27;20393;-72
2022/09/27 02:52:48;;;;;;;6.25;1.58;;;;;;;6.05;100.00;91497.53;2137730;27;20018;-74
2022/09/27 02:54:06;;;;;;;3.47;1.52;;;;;;;6.03;100.00;91505.16;2135156;27;20118;-74
2022/09/27 02:55:19;;;;;;;4.22;1.40;;;;;;;6.01;100.00;91496.16;2135603;27;20082;-73
2022/09/27 02:56:36;;;;;;;4.35;1.42;;;;;;;5.96;100.00;91502.72;2134639;27;20031;-73
2022/09/27 02:57:54;;;;;;;5.95;1.20;;;;;;;6.05;100.00;91488.81;2137462;27;20345;-73
2022/09/27 02:59:05;;;;;;;5.82;1.58;;;;;;;6.19;100.00;91496.34;2135732;27;20768;-73
2022/09/27 03:00:16;;;;;;;6.45;1.60;;;;;;;6.11;100.00;91495.09;2136801;27;20054;-72
2022/09/27 03:01:58;;;;;;;6.80;1.48;;;;;;;5.92;100.00;91496.06;2134606;27;20060;-72
2022/09/27 03:03:21;;;;;;;5.13;2.15;;;;;;;5.92;100.00;91499.44;2096408;28;20044;-73
2022/09/27 03:04:35;;;;;;;6.68;2.05;;;;;;;5.96;100.00;91500.06;2135258;27;20468;-71
2022/09/27 03:05:43;;;;;;;6.85;2.13;;;;;;;5.95;100.00;91501.25;2137149;27;20026;-73
2022/09/27 03:06:46;;;;;;;5.35;2.45;;;;;;;6.17;100.00;91513.84;2134052;27;20022;-73
2022/09/27 03:07:48;;;;;;;10.45;2.45;;;;;;;6.15;100.00;91511.63;2137731;27;20078;-72
2022/09/27 03:08:50;;;;;;;8.60;2.22;;;;;;;6.08;100.00;91503.16;2136791;27;20128;-73
2022/09/27 03:09:52;;;;;;;9.93;2.70;;;;;;;5.96;100.00;91507.28;2137106;27;20521;-72
2022/09/27 03:10:53;;;;;;;10.98;2.83;;;;;;;6.03;100.00;91509.75;2136748;27;20029;-73
2022/09/27 03:11:54;;;;;;;11.43;3.20;;;;;;;6.04;100.00;91514.59;2137418;27;20038;-72
2022/09/27 03:12:57;;;;;;;4.07;2.42;;;;;;;6.15;100.00;91516.22;2137622;27;20034;-73
2022/09/27 03:13:58;;;;;;;11.43;3.00;;;;;;;6.08;100.00;91517.16;2137504;27;20087;-72
2022/09/27 03:14:59;;;;;;;12.57;3.17;;;;;;;6.00;100.00;91508.66;2137355;27;20418;-72
2022/09/27 03:16:01;;;;;;;10.70;3.20;;;;;;;6.05;100.00;91507.38;2136580;27;20030;-72
2022/09/27 03:17:01;;;;;;;13.48;3.30;;;;;;;6.11;100.00;91513.66;2137176;27;20516;-73
2022/09/27 03:18:03;;;;;;;10.48;2.88;;;;;;;5.99;100.00;91509.09;2137651;27;20026;-73
2022/09/27 03:19:05;;;;;;;5.72;2.78;;;;;;;5.96;100.00;91508.03;2137683;27;20033;-73
2022/09/27 03:20:07;;;;;;;8.68;2.75;;;;;;;6.12;100.00;91504.53;2137170;27;20045;-73
2022/09/27 03:21:08;;;;;;;11.45;3.13;;;;;;;6.07;100.00;91499.75;2123006;27;20030;-72
2022/09/27 03:22:09;;;;;;;10.40;3.28;;;;;;;6.12;100.00;91509.09;2127943;27;20046;-73
2022/09/27 03:23:11;;;;;;;9.30;2.83;;;;;;;6.01;100.00;91501.44;2137357;27;20128;-73
2022/09/27 03:24:11;;;;;;;11.25;3.25;;;;;;;5.92;100.00;91504.75;2137587;27;20087;-72
2022/09/27 03:25:12;;;;;;;10.38;2.70;;;;;;;5.92;100.00;91506.66;2137411;27;20026;-73
2022/09/27 03:26:13;;;;;;;12.43;3.05;;;;;;;6.00;100.00;91507.94;2125772;27;20728;-73
2022/09/27 03:27:14;;;;;;;13.65;2.95;;;;;;;5.85;100.00;91504.94;2121438;27;20479;-73
2022/09/27 03:28:16;;;;;;;9.68;2.70;;;;;;;5.89;100.00;91502.94;2132131;27;20033;-73
2022/09/27 03:29:17;;;;;;;11.48;3.10;;;;;;;6.12;100.00;91507.19;2131886;27;20047;-74
2022/09/27 03:30:18;;;;;;;9.80;2.33;;;;;;;6.05;100.00;91505.47;2132491;27;20061;-74
2022/09/27 03:31:19;;;;;;;9.57;2.63;;;;;;;5.98;100.00;91497.75;2130235;27;20080;-73
2022/09/27 03:32:20;;;;;;;8.38;2.20;;;;;;;5.88;100.00;91496.13;2129287;27;20515;-72
2022/09/27 03:33:21;;;;;;;12.40;2.47;;;;;;;5.95;100.00;91505.81;2131448;27;20285;-72
2022/09/27 03:34:22;;;;;;;15.18;2.80;;;;;;;5.89;100.00;91497.63;2131644;27;20435;-73
2022/09/27 03:35:23;;;;;;;6.30;2.67;;;;;;;5.89;100.00;91494.97;2131275;27;20057;-72
2022/09/27 03:36:24;;;;;;;4.75;2.05;;;;;;;5.96;100.00;91494.78;2131109;27;20034;-73
2022/09/27 03:37:28;;;;;;;10.90;2.50;;;;;;;5.86;100.00;91498.47;2131665;27;20045;-73
2022/09/27 03:38:29;;;;;;;6.60;2.70;;;;;;;6.04;100.00;91503.25;2122505;27;20053;-73
2022/09/27 03:39:30;;;;;;;7.45;2.30;;;;;;;5.95;100.00;91506.56;2122389;27;20050;-74
2022/09/27 03:40:30;;;;;;;8.15;2.15;;;;;;;5.90;100.00;91498.38;2131343;27;20026;-75
2022/09/27 03:41:31;;;;;;;9.38;2.67;;;;;;;5.95;100.00;91492.56;2131101;27;20372;-74
2022/09/27 03:42:33;;;;;;;6.82;2.22;;;;;;;5.84;100.00;91492.09;2131111;27;20641;-75
2022/09/27 03:43:34;;;;;;;7.75;2.00;;;;;;;5.78;100.00;91489.25;2131826;27;20034;-73
2022/09/27 03:44:35;;;;;;;7.60;2.15;;;;;;;5.77;100.00;91488.50;2114146;28;20485;-74
2022/09/27 03:45:36;;;;;;;7.22;2.28;;;;;;;5.75;100.00;91493.50;2113889;27;20020;-72
2022/09/27 03:46:37;;;;;;;10.98;2.70;;;;;;;5.96;100.00;91502.00;2131649;27;20023;-72
2022/09/27 03:47:40;;;;;;;7.75;2.38;;;;;;;5.84;100.00;91500.06;2130007;27;20089;-72
2022/09/27 03:48:41;;;;;;;11.65;2.80;;;;;;;5.74;100.00;91493.91;2131494;27;20469;-73
2022/09/27 03:49:42;;;;;;;6.40;2.05;;;;;;;5.86;100.00;91498.47;2131402;27;20460;-74
2022/09/27 03:50:43;;;;;;;10.90;2.40;;;;;;;5.78;100.00;91503.25;2131481;27;20038;-73
2022/09/27 03:51:44;;;;;;;8.52;2.20;;;;;;;5.82;100.00;91511.09;2130939;27;20034;-73
2022/09/27 03:52:45;;;;;;;5.40;1.80;;;;;;;5.67;100.00;91510.78;2130448;27;20133;-74
2022/09/27 03:53:46;;;;;;;7.43;1.95;;;;;;;5.76;100.00;91510.16;2131587;27;20037;-74
2022/09/27 03:54:47;;;;;;;6.00;2.00;;;;;;;5.91;100.00;91510.44;2131408;27;20026;-73
2022/09/27 03:55:48;;;;;;;3.45;1.90;;;;;;;5.97;100.00;91512.19;2131352;27;20027;-73
2022/09/27 03:56:50;;;;;;;4.50;2.20;;;;;;;6.00;100.00;91513.97;2131108;27;20034;-71
2022/09/27 03:57:52;;;;;;;6.15;2.47;;;;;;;5.93;100.00;91506.25;2130244;27;20026;-73
2022/09/27 03:58:53;;;;;;;6.20;1.92;;;;;;;5.89;100.00;91505.59;2131624;27;20517;-74
2022/09/27 03:59:54;;;;;;;12.90;2.30;;;;;;;5.80;100.00;91508.13;2131312;27;20030;-71
2022/09/27 04:00:55;;;;;;;5.70;1.58;;;;;;;5.72;100.00;91501.56;2133722;27;20456;-72
2022/09/27 04:01:56;;;;;;;4.55;1.67;;;;;;;5.68;100.00;91495.63;2131507;27;20159;-74
2022/09/27 04:02:58;;;;;;;4.45;1.60;;;;;;;5.78;100.00;91492.63;2130503;27;20475;-71
2022/09/27 04:03:59;;;;;;;6.10;1.20;;;;;;;5.87;100.00;91489.34;2130901;27;20030;-71
2022/09/27 04:05:00;;;;;;;6.55;1.50;;;;;;;5.97;100.00;91490.97;2131149;27;20022;-75
2022/09/27 04:06:01;;;;;;;4.10;1.23;;;;;;;5.98;100.00;91481.09;2131615;27;20022;-71
2022/09/27 04:07:02;;;;;;;4.43;0.90;;;;;;;5.88;100.00;91490.09;2131561;27;20470;-72
2022/09/27 04:08:05;;;;;;;4.13;0.90;;;;;;;5.77;100.00;91493.81;2131257;27;20026;-72
2022/09/27 04:09:06;;;;;;;3.53;0.70;;;;;;;5.79;100.00;91485.41;2131557;27;20405;-72
2022/09/27 04:10:09;;;;;;;0.93;0.70;;;;;;;5.74;100.00;91486.69;2130960;27;20026;-74
2022/09/27 04:11:10;;;;;;;2.95;0.60;;;;;;;5.66;100.00;91488.06;2128602;27;20040;-71
2022/09/27 04:12:11;;;;;;;3.47;0.85;;;;;;;5.68;100.00;91493.69;2131426;27;20075;-72
2022/09/27 04:13:12;;;;;;;1.55;0.90;;;;;;;5.52;100.00;91489.22;2130863;27;20082;-74
2022/09/27 04:14:13;;;;;;;1.95;0.70;;;;;;;5.73;100.00;91495.09;2130966;27;20030;-72
2022/09/27 04:15:14;;;;;;;1.13;0.50;;;;;;;5.63;100.00;91493.50;2130626;27;20042;-72
2022/09/27 04:16:15;;;;;;;2.10;1.00;;;;;;;5.56;100.00;91491.78;2131478;27;20022;-73
2022/09/27 04:17:16;;;;;;;3.53;0.80;;;;;;;5.59;100.00;91503.47;2130882;27;20035;-72
2022/09/27 04:18:17;;;;;;;2.33;0.63;;;;;;;5.69;100.00;91497.09;2121929;27;20038;-73
2022/09/27 04:19:18;;;;;;;3.08;0.60;;;;;;;5.96;100.00;91502.00;2122062;27;20063;-72
2022/09/27 04:20:19;;;;;;;3.75;0.95;;;;;;;5.89;100.00;91500.28;2121265;27;20042;-74
2022/09/27 04:21:21;;;;;;;1.75;0.90;;;;;;;5.74;100.00;91505.25;2122209;27;20034;-73
2022/09/27 04:22:22;;;;;;;3.28;0.88;;;;;;;5.85;100.00;91499.66;2121429;27;20499;-73
2022/09/27 04:23:23;;;;;;;4.07;0.85;;;;;;;5.80;100.00;91508.88;2121766;27;20027;-73
2022/09/27 04:24:24;;;;;;;3.75;1.00;;;;;;;5.80;100.00;91511.53;2131285;27;20062;-75
2022/09/27 04:25:25;;;;;;;3.63;1.00;;;;;;;5.89;100.00;91513.53;2121479;27;20338;-74
2022/09/27 04:26:26;;;;;;;4.43;0.77;;;;;;;5.85;100.00;91522.78;2122274;27;20120;-74
2022/09/27 04:27:27;;;;;;;1.52;0.90;;;;;;;5.66;100.00;91519.88;2131202;27;20418;-73
2022/09/27 04:28:29;;;;;;;9.98;1.20;;;;;;;5.71;100.00;91521.28;2130938;27;20046;-73
2022/09/27 04:29:31;;;;;;;5.00;1.20;;;;;;;5.84;100.00;91523.91;2131073;27;20030;-75
2022/09/27 04:30:32;;;;;;;4.72;1.30;;;;;;;5.83;100.00;91528.47;2128530;27;20026;-73
2022/09/27 04:31:36;;;;;;;4.78;1.25;;;;;;;5.74;100.00;91534.41;2131329;27;20022;-72
2022/09/27 04:32:44;;;;;;;6.45;1.20;;;;;;;5.81;100.00;91546.72;2131220;27;20103;-73
2022/09/27 04:33:45;;;;;;;4.13;1.15;;;;;;;5.72;100.00;91549.28;2127621;27;20800;-71
2022/09/27 04:36:26;;;;;;;3.28;0.93;;;;;;;5.81;100.00;91562.63;2104598;28;20123;-74
2022/09/27 04:37:27;;;;;;;3.78;0.90;;;;;;;5.82;100.00;91564.13;2095556;28;20043;-71
2022/09/27 04:38:28;;;;;;;5.97;1.10;;;;;;;5.71;100.00;91553.09;2087331;28;20180;-70
2022/09/27 04:39:30;;;;;;;2.30;0.77;;;;;;;5.72;100.00;91562.53;2095168;28;20090;-72
2022/09/27 04:40:34;;;;;;;2.63;0.68;;;;;;;5.61;100.00;91562.06;2104502;28;20389;-70
2022/09/27 04:41:35;;;;;;;3.42;0.60;;;;;;;5.48;100.00;91564.69;2092838;28;20509;-71
2022/09/27 04:42:36;;;;;;;1.58;0.50;;;;;;;5.56;100.00;91566.00;2121573;27;20027;-73
2022/09/27 04:43:39;;;;;;;1.02;0.60;;;;;;;5.41;100.00;91563.00;2131102;27;20026;-70
2022/09/27 04:44:40;;;;;;;0.40;0.35;;;;;;;5.42;100.00;91566.41;2126789;27;20704;-72
2022/09/27 04:45:42;;;;;;;1.88;0.30;;;;;;;5.44;100.00;91570.09;2131062;27;20043;-71
2022/09/27 04:46:43;;;;;;;2.75;0.40;;;;;;;5.26;100.00;91570.56;2130333;27;20027;-73
2022/09/27 04:47:50;;;;;;;0.85;0.50;;;;;;;5.24;100.00;91562.31;2130692;27;20026;-71
2022/09/27 04:48:51;;;;;;;1.90;0.35;;;;;;;5.28;100.00;91564.88;2121839;27;20087;-71
2022/09/27 04:49:52;;;;;;;1.40;0.30;;;;;;;5.19;100.00;91568.13;2121718;27;20019;-70
2022/09/27 04:50:57;;;;;;;3.30;0.40;;;;;;;5.30;100.00;91575.78;2131110;27;20086;-71
2022/09/27 04:51:58;;;;;;;2.47;0.43;;;;;;;5.16;100.00;91579.56;2126841;27;20042;-71
2022/09/27 04:53:00;;;;;;;2.40;0.30;;;;;;;5.03;100.00;91571.56;2128267;27;20054;-72
2022/09/27 04:54:01;;;;;;;2.47;0.40;;;;;;;5.01;100.00;91571.25;2129088;27;20046;-72
2022/09/27 04:55:02;;;;;;;0.77;0.30;;;;;;;5.03;100.00;91566.28;2128828;27;20034;-71
2022/09/27 04:56:05;;;;;;;1.27;0.20;;;;;;;5.11;100.00;91576.69;2129157;27;20090;-72
2022/09/27 04:57:06;;;;;;;1.33;0.43;;;;;;;5.05;100.00;91571.16;2118260;27;20023;-72
2022/09/27 04:58:07;;;;;;;1.40;0.45;;;;;;;4.94;100.00;91570.69;2120214;27;20468;-71
2022/09/27 04:59:08;;;;;;;0.90;0.50;;;;;;;4.94;100.00;91566.13;2129500;27;20027;-71
2022/09/27 05:00:10;;;;;;;0.82;0.30;;;;;;;5.01;100.00;91565.97;2128606;27;20034;-74
2022/09/27 05:01:11;;;;;;;2.42;0.50;;;;;;;5.03;100.00;91565.53;2123480;27;20037;-71
2022/09/27 05:02:12;;;;;;;1.65;0.30;;;;;;;5.10;100.00;91554.75;2129675;27;20031;-71
2022/09/27 05:03:13;;;;;;;2.17;0.60;;;;;;;5.06;100.00;91564.69;2130506;27;20035;-71
2022/09/27 05:04:15;;;;;;;2.20;0.57;;;;;;;5.00;100.00;91566.34;2131245;27;20082;-71
2022/09/27 05:05:16;;;;;;;2.05;0.30;;;;;;;5.02;100.00;91572.00;2121427;27;20057;-71
2022/09/27 05:06:17;;;;;;;2.65;0.40;;;;;;;4.99;100.00;91570.16;2113457;28;20020;-70
2022/09/27 05:07:18;;;;;;;3.30;0.73;;;;;;;5.12;100.00;91564.94;2121004;27;20148;-71
2022/09/27 05:08:19;;;;;;;1.40;0.75;;;;;;;5.08;100.00;91572.97;2130472;27;20547;-70
2022/09/27 05:09:20;;;;;;;0.77;0.40;;;;;;;5.10;100.00;91567.25;2130606;27;20457;-71
2022/09/27 05:10:21;;;;;;;2.70;0.60;;;;;;;5.05;100.00;91569.25;2130867;27;20018;-74
2022/09/27 05:11:23;;;;;;;2.00;0.63;;;;;;;5.01;100.00;91568.59;2130941;27;20030;-69
2022/09/27 05:12:25;;;;;;;3.80;0.65;;;;;;;5.10;100.00;91575.22;2130857;27;20033;-69
2022/09/27 05:13:26;;;;;;;2.65;0.70;;;;;;;5.16;100.00;91579.56;2129769;27;20023;-70
2022/09/27 05:14:27;;;;;;;2.97;0.60;;;;;;;5.16;100.00;91576.91;2128962;27;20035;-73